createdAt,value
2018-08-22T00:03:06.577Z,0
2018-08-22T00:04:54.339Z,0
2018-08-22T00:05:56.023Z,0
2018-08-22T00:06:57.838Z,0
2018-08-22T00:07:59.265Z,0
2018-08-22T00:09:00.217Z,0
2018-08-22T00:10:02.722Z,0
2018-08-22T00:11:03.725Z,0
2018-08-22T00:12:04.816Z,0
2018-08-22T00:13:05.919Z,0
2018-08-22T00:14:06.968Z,0
2018-08-22T00:15:08.059Z,0
2018-08-22T00:16:08.757Z,0
2018-08-22T00:17:09.479Z,0
2018-08-22T00:18:10.199Z,0
2018-08-22T00:19:11.301Z,0
2018-08-22T00:20:12.285Z,0
2018-08-22T00:21:13.378Z,0
2018-08-22T00:22:14.128Z,0
2018-08-22T00:23:14.859Z,0
2018-08-22T00:24:15.659Z,0
2018-08-22T00:25:16.662Z,0
2018-08-22T00:26:17.393Z,0
2018-08-22T00:27:18.427Z,0
2018-08-22T00:28:19.151Z,0
2018-08-22T00:29:19.979Z,0
2018-08-22T00:30:20.629Z,0
2018-08-22T00:31:21.636Z,0
2018-08-22T00:32:22.417Z,0
2018-08-22T00:33:23.414Z,0
2018-08-22T00:34:24.421Z,0
2018-08-22T00:35:25.223Z,0
2018-08-22T00:36:25.972Z,0
2018-08-22T00:37:26.700Z,0
2018-08-22T00:38:27.435Z,0
2018-08-22T00:39:28.516Z,0
2018-08-22T00:40:29.296Z,0
2018-08-22T00:41:30.317Z,0
2018-08-22T00:42:31.045Z,0
2018-08-22T00:43:32.018Z,0
2018-08-22T00:44:32.760Z,0
2018-08-22T00:45:33.521Z,0
2018-08-22T00:46:34.230Z,0
2018-08-22T00:47:35.202Z,0
2018-08-22T00:48:35.957Z,0
2018-08-22T00:49:36.704Z,0
2018-08-22T00:50:37.422Z,0
2018-08-22T00:51:38.400Z,0
2018-08-22T00:52:39.214Z,0
2018-08-22T00:53:39.935Z,0
2018-08-22T00:54:40.667Z,0
2018-08-22T00:55:41.423Z,0
2018-08-22T00:56:42.560Z,0
2018-08-22T00:57:43.853Z,0
2018-08-22T00:58:44.612Z,0
2018-08-22T00:59:45.417Z,0
2018-08-22T01:00:46.148Z,0
2018-08-22T01:01:46.866Z,0
2018-08-22T01:02:47.915Z,0
2018-08-22T01:03:48.629Z,0
2018-08-22T01:04:49.606Z,0
2018-08-22T01:05:50.413Z,0
2018-08-22T01:06:51.193Z,0
2018-08-22T01:07:52.222Z,0
2018-08-22T01:08:53.222Z,0
2018-08-22T01:09:53.927Z,0
2018-08-22T01:10:54.912Z,0
2018-08-22T01:11:55.619Z,0
2018-08-22T01:12:56.586Z,0
2018-08-22T01:13:57.307Z,0
2018-08-22T01:14:58.027Z,0
2018-08-22T01:15:59.009Z,0
2018-08-22T01:16:59.722Z,0
2018-08-22T01:18:00.439Z,0
2018-08-22T01:19:01.178Z,0
2018-08-22T01:20:01.941Z,0
2018-08-22T01:21:02.671Z,0
2018-08-22T01:22:03.396Z,0
2018-08-22T01:23:04.106Z,0
2018-08-22T01:24:04.831Z,0
2018-08-22T01:25:05.878Z,0
2018-08-22T01:26:06.606Z,0
2018-08-22T01:27:07.335Z,0
2018-08-22T01:28:08.052Z,0
2018-08-22T01:29:08.764Z,0
2018-08-22T01:30:09.562Z,0
2018-08-22T01:31:10.274Z,0
2018-08-22T01:32:11.497Z,0
2018-08-22T01:33:12.207Z,0
2018-08-22T01:34:12.948Z,0
2018-08-22T01:35:13.669Z,0
2018-08-22T01:36:14.387Z,0
2018-08-22T01:37:15.361Z,0
2018-08-22T01:38:16.077Z,0
2018-08-22T01:39:17.148Z,0
2018-08-22T01:40:17.882Z,0
2018-08-22T01:41:18.613Z,0
2018-08-22T01:42:19.648Z,0
2018-08-22T01:43:20.383Z,0
2018-08-22T01:44:21.103Z,0
2018-08-22T01:45:21.826Z,0
2018-08-22T01:46:22.815Z,0
2018-08-22T01:47:23.526Z,0
2018-08-22T01:48:24.257Z,0
2018-08-22T01:49:24.971Z,0
2018-08-22T01:50:25.954Z,0
2018-08-22T01:51:26.690Z,0
2018-08-22T01:52:27.424Z,0
2018-08-22T01:53:28.135Z,0
2018-08-22T01:54:28.856Z,0
2018-08-22T01:55:29.943Z,0
2018-08-22T01:56:30.678Z,0
2018-08-22T01:57:31.403Z,0
2018-08-22T01:58:32.123Z,0
2018-08-22T01:59:32.843Z,0
2018-08-22T02:00:33.569Z,0
2018-08-22T02:01:34.605Z,0
2018-08-22T02:02:35.335Z,0
2018-08-22T02:04:19.386Z,0
2018-08-22T02:05:20.119Z,0
2018-08-22T02:06:20.841Z,0
2018-08-22T02:07:21.559Z,0
2018-08-22T02:08:22.290Z,0
2018-08-22T02:09:23.033Z,0
2018-08-22T02:10:23.751Z,0
2018-08-22T02:11:24.478Z,0
2018-08-22T02:12:25.267Z,0
2018-08-22T02:13:26.064Z,0
2018-08-22T02:14:27.049Z,0
2018-08-22T02:15:27.769Z,0
2018-08-22T02:16:28.516Z,0
2018-08-22T02:17:29.254Z,0
2018-08-22T02:18:30.067Z,0
2018-08-22T02:19:31.052Z,0
2018-08-22T02:20:31.765Z,0
2018-08-22T02:21:32.497Z,0
2018-08-22T02:22:33.236Z,0
2018-08-22T02:23:34.053Z,0
2018-08-22T02:24:34.795Z,0
2018-08-22T02:26:51.953Z,0
2018-08-22T02:29:09.689Z,0
2018-08-22T02:30:10.547Z,0
2018-08-22T02:31:11.369Z,0
2018-08-22T02:32:12.438Z,0
2018-08-22T02:33:13.490Z,0
2018-08-22T02:35:29.779Z,0
2018-08-22T02:36:30.770Z,0
2018-08-22T02:37:31.497Z,0
2018-08-22T02:38:32.210Z,0
2018-08-22T02:39:32.937Z,0
2018-08-22T02:40:33.672Z,0
2018-08-22T02:41:34.394Z,0
2018-08-22T02:42:35.109Z,0
2018-08-22T02:43:35.835Z,0
2018-08-22T02:44:36.616Z,0
2018-08-22T02:45:37.345Z,0
2018-08-22T02:46:38.125Z,0
2018-08-22T02:47:38.850Z,0
2018-08-22T02:48:39.573Z,0
2018-08-22T02:50:41.265Z,0
2018-08-22T02:51:42.011Z,0
2018-08-22T02:52:42.995Z,0
2018-08-22T02:53:43.734Z,0
2018-08-22T02:54:44.461Z,0
2018-08-22T02:55:45.177Z,0
2018-08-22T02:56:46.299Z,0
2018-08-22T02:57:47.129Z,0
2018-08-22T02:58:47.868Z,0
2018-08-22T02:59:48.593Z,0
2018-08-22T03:00:49.322Z,0
2018-08-22T03:03:05.635Z,0
2018-08-22T03:04:06.363Z,0
2018-08-22T03:05:07.089Z,0
2018-08-22T03:06:07.822Z,0
2018-08-22T03:07:08.559Z,0
2018-08-22T03:08:09.673Z,0
2018-08-22T03:10:54.832Z,0
2018-08-22T03:11:55.624Z,0
2018-08-22T03:12:56.403Z,0
2018-08-22T03:14:39.886Z,0
2018-08-22T03:15:40.674Z,0
2018-08-22T03:16:41.468Z,0
2018-08-22T03:18:58.023Z,0
2018-08-22T03:19:59.074Z,0
2018-08-22T03:20:59.806Z,0
2018-08-22T03:22:00.541Z,0
2018-08-22T03:23:01.310Z,0
2018-08-22T03:24:02.148Z,0
2018-08-22T03:25:02.920Z,0
2018-08-22T03:26:03.695Z,0
2018-08-22T03:27:04.690Z,0
2018-08-22T03:28:05.464Z,0
2018-08-22T03:29:06.578Z,0
2018-08-22T03:30:07.763Z,0
2018-08-22T03:31:08.541Z,0
2018-08-22T03:32:10.124Z,0
2018-08-22T03:33:10.919Z,0
2018-08-22T03:36:15.475Z,0
2018-08-22T03:37:58.942Z,0
2018-08-22T03:38:59.687Z,0
2018-08-22T03:40:00.418Z,0
2018-08-22T03:41:01.620Z,0
2018-08-22T03:42:02.704Z,0
2018-08-22T03:43:03.798Z,0
2018-08-22T03:44:04.534Z,0
2018-08-22T03:45:05.562Z,0
2018-08-22T03:46:06.284Z,0
2018-08-22T03:47:07.005Z,0
2018-08-22T03:48:07.984Z,0
2018-08-22T03:49:08.711Z,0
2018-08-22T03:50:09.445Z,0
2018-08-22T03:51:10.419Z,0
2018-08-22T03:52:11.125Z,0
2018-08-22T03:53:12.106Z,0
2018-08-22T03:54:12.833Z,0
2018-08-22T03:55:13.821Z,0
2018-08-22T03:56:14.539Z,0
2018-08-22T03:57:15.258Z,0
2018-08-22T03:58:15.982Z,0
2018-08-22T03:59:16.968Z,0
2018-08-22T04:00:17.683Z,0
2018-08-22T04:01:18.662Z,0
2018-08-22T04:02:19.379Z,0
2018-08-22T04:03:20.357Z,0
2018-08-22T04:04:21.071Z,0
2018-08-22T04:05:21.800Z,0
2018-08-22T04:06:22.521Z,0
2018-08-22T04:07:23.257Z,0
2018-08-22T04:08:23.971Z,0
2018-08-22T04:09:24.705Z,0
2018-08-22T04:10:25.983Z,5
2018-08-22T04:11:26.710Z,5
2018-08-22T04:12:27.445Z,5
2018-08-22T04:13:28.175Z,5
2018-08-22T04:14:28.902Z,5
2018-08-22T04:15:29.687Z,5
2018-08-22T04:16:30.667Z,5
2018-08-22T04:17:31.377Z,11
2018-08-22T04:18:32.097Z,11
2018-08-22T04:19:33.078Z,11
2018-08-22T04:20:33.856Z,11
2018-08-22T04:21:34.896Z,11
2018-08-22T04:22:35.616Z,11
2018-08-22T04:23:36.342Z,16
2018-08-22T04:24:37.316Z,16
2018-08-22T04:25:38.086Z,16
2018-08-22T04:26:38.810Z,16
2018-08-22T04:27:39.789Z,22
2018-08-22T04:28:40.521Z,22
2018-08-22T04:29:41.238Z,22
2018-08-22T04:30:42.243Z,28
2018-08-22T04:31:42.971Z,28
2018-08-22T04:32:43.959Z,28
2018-08-22T04:33:44.969Z,28
2018-08-22T04:34:45.686Z,33
2018-08-22T04:35:46.414Z,33
2018-08-22T04:36:47.189Z,33
2018-08-22T04:37:48.189Z,39
2018-08-22T04:38:48.938Z,39
2018-08-22T04:39:49.656Z,39
2018-08-22T04:40:50.388Z,45
2018-08-22T04:41:51.105Z,45
2018-08-22T04:42:51.896Z,50
2018-08-22T04:43:52.627Z,50
2018-08-22T04:44:53.367Z,50
2018-08-22T04:45:54.092Z,56
2018-08-22T04:46:54.826Z,56
2018-08-22T04:47:55.614Z,61
2018-08-22T04:48:56.593Z,61
2018-08-22T04:49:57.316Z,61
2018-08-22T04:50:58.047Z,67
2018-08-22T04:51:58.773Z,73
2018-08-22T04:52:59.507Z,73
2018-08-22T04:54:00.302Z,78
2018-08-22T04:55:01.029Z,78
2018-08-22T04:56:01.751Z,78
2018-08-22T04:57:02.514Z,78
2018-08-22T04:58:03.246Z,84
2018-08-22T04:59:03.982Z,90
2018-08-22T05:00:04.699Z,90
2018-08-22T05:01:05.437Z,90
2018-08-22T05:02:06.174Z,90
2018-08-22T05:03:06.921Z,90
2018-08-22T05:04:07.640Z,95
2018-08-22T05:05:08.630Z,95
2018-08-22T05:06:09.351Z,101
2018-08-22T05:07:10.094Z,101
2018-08-22T05:08:10.812Z,106
2018-08-22T05:09:11.791Z,106
2018-08-22T05:10:12.767Z,112
2018-08-22T05:11:13.509Z,118
2018-08-22T05:12:14.245Z,118
2018-08-22T05:13:14.975Z,123
2018-08-22T05:14:15.707Z,129
2018-08-22T05:15:16.438Z,135
2018-08-22T05:16:17.419Z,135
2018-08-22T05:17:18.482Z,140
2018-08-22T05:18:19.210Z,146
2018-08-22T05:19:19.935Z,146
2018-08-22T05:20:20.665Z,151
2018-08-22T05:21:21.392Z,151
2018-08-22T05:22:22.119Z,157
2018-08-22T05:23:22.849Z,163
2018-08-22T05:24:23.578Z,163
2018-08-22T05:25:24.305Z,168
2018-08-22T05:26:25.025Z,174
2018-08-22T05:27:26.103Z,174
2018-08-22T05:28:26.822Z,174
2018-08-22T05:29:27.548Z,174
2018-08-22T05:30:28.554Z,174
2018-08-22T05:31:29.271Z,174
2018-08-22T05:32:30.045Z,174
2018-08-22T05:33:30.790Z,174
2018-08-22T05:34:31.532Z,180
2018-08-22T05:35:32.264Z,180
2018-08-22T05:36:33.000Z,185
2018-08-22T05:37:33.730Z,185
2018-08-22T05:38:34.464Z,191
2018-08-22T05:39:35.199Z,196
2018-08-22T05:40:35.992Z,202
2018-08-22T05:41:36.672Z,208
2018-08-22T05:42:37.393Z,219
2018-08-22T05:43:38.119Z,225
2018-08-22T05:44:38.861Z,230
2018-08-22T05:45:39.592Z,241
2018-08-22T05:46:40.320Z,247
2018-08-22T05:47:41.052Z,253
2018-08-22T05:48:41.782Z,258
2018-08-22T05:49:42.523Z,264
2018-08-22T05:50:43.252Z,270
2018-08-22T05:51:44.336Z,270
2018-08-22T05:52:45.069Z,275
2018-08-22T05:53:45.794Z,281
2018-08-22T05:54:46.779Z,292
2018-08-22T05:55:47.503Z,303
2018-08-22T05:56:48.540Z,315
2018-08-22T05:57:49.263Z,320
2018-08-22T05:58:50.001Z,331
2018-08-22T05:59:50.730Z,337
2018-08-22T06:00:51.467Z,343
2018-08-22T06:01:52.194Z,348
2018-08-22T06:02:52.925Z,348
2018-08-22T06:03:53.659Z,348
2018-08-22T06:04:54.386Z,354
2018-08-22T06:05:55.118Z,360
2018-08-22T06:06:55.843Z,365
2018-08-22T06:07:56.585Z,376
2018-08-22T06:08:57.309Z,371
2018-08-22T06:09:58.037Z,371
2018-08-22T06:10:58.765Z,371
2018-08-22T06:11:59.505Z,376
2018-08-22T06:13:00.285Z,376
2018-08-22T06:14:01.040Z,388
2018-08-22T06:15:01.771Z,393
2018-08-22T06:16:02.514Z,405
2018-08-22T06:17:03.249Z,410
2018-08-22T06:18:04.026Z,416
2018-08-22T06:19:04.758Z,433
2018-08-22T06:20:05.484Z,438
2018-08-22T06:21:06.213Z,466
2018-08-22T06:22:06.943Z,466
2018-08-22T06:23:07.721Z,472
2018-08-22T06:24:08.463Z,483
2018-08-22T06:25:09.194Z,489
2018-08-22T06:26:09.924Z,495
2018-08-22T06:27:10.650Z,495
2018-08-22T06:28:11.379Z,489
2018-08-22T06:29:12.114Z,489
2018-08-22T06:30:12.843Z,472
2018-08-22T06:31:13.586Z,461
2018-08-22T06:32:14.308Z,438
2018-08-22T06:33:15.043Z,427
2018-08-22T06:34:15.763Z,410
2018-08-22T06:35:16.505Z,405
2018-08-22T06:36:17.297Z,399
2018-08-22T06:37:17.963Z,393
2018-08-22T06:38:18.696Z,388
2018-08-22T06:39:19.427Z,393
2018-08-22T06:40:20.166Z,393
2018-08-22T06:41:20.888Z,393
2018-08-22T06:42:21.626Z,416
2018-08-22T06:43:22.357Z,421
2018-08-22T06:44:23.156Z,416
2018-08-22T06:45:23.803Z,421
2018-08-22T06:46:24.593Z,427
2018-08-22T06:47:25.327Z,427
2018-08-22T06:48:26.069Z,433
2018-08-22T06:49:26.805Z,433
2018-08-22T06:50:27.537Z,438
2018-08-22T06:51:28.270Z,433
2018-08-22T06:52:28.992Z,433
2018-08-22T06:53:29.717Z,433
2018-08-22T06:54:30.466Z,444
2018-08-22T06:55:31.332Z,427
2018-08-22T06:56:32.212Z,433
2018-08-22T06:57:32.951Z,433
2018-08-22T06:58:33.689Z,433
2018-08-22T06:59:34.673Z,433
2018-08-22T07:00:35.404Z,438
2018-08-22T07:01:36.184Z,438
2018-08-22T07:02:36.916Z,444
2018-08-22T07:03:37.646Z,450
2018-08-22T07:04:38.388Z,478
2018-08-22T07:05:39.118Z,461
2018-08-22T07:06:39.856Z,573
2018-08-22T07:07:40.584Z,466
2018-08-22T07:08:41.362Z,472
2018-08-22T07:09:42.095Z,489
2018-08-22T07:10:42.825Z,500
2018-08-22T07:11:43.548Z,500
2018-08-22T07:12:44.280Z,483
2018-08-22T07:13:45.270Z,483
2018-08-22T07:14:46.108Z,506
2018-08-22T07:15:46.862Z,489
2018-08-22T07:16:47.601Z,489
2018-08-22T07:17:48.329Z,489
2018-08-22T07:18:49.065Z,500
2018-08-22T07:19:49.848Z,500
2018-08-22T07:20:50.835Z,506
2018-08-22T07:21:51.554Z,641
2018-08-22T07:22:52.288Z,585
2018-08-22T07:23:53.019Z,506
2018-08-22T07:24:53.750Z,523
2018-08-22T07:25:54.483Z,528
2018-08-22T07:26:55.282Z,506
2018-08-22T07:27:56.017Z,517
2018-08-22T07:28:56.743Z,511
2018-08-22T07:29:57.509Z,528
2018-08-22T07:30:58.222Z,517
2018-08-22T07:31:59.009Z,517
2018-08-22T07:32:59.739Z,523
2018-08-22T07:34:00.472Z,523
2018-08-22T07:35:01.213Z,528
2018-08-22T07:36:01.947Z,1113
2018-08-22T07:37:02.683Z,545
2018-08-22T07:38:03.412Z,742
2018-08-22T07:39:04.155Z,776
2018-08-22T07:40:04.890Z,849
2018-08-22T07:41:05.624Z,579
2018-08-22T07:42:06.353Z,568
2018-08-22T07:43:07.089Z,596
2018-08-22T07:44:07.825Z,1141
2018-08-22T07:45:08.913Z,1653
2018-08-22T07:46:09.646Z,1541
2018-08-22T07:47:10.441Z,1704
2018-08-22T07:48:11.113Z,1451
2018-08-22T07:49:11.847Z,1136
2018-08-22T07:50:12.650Z,1665
2018-08-22T07:51:13.315Z,1749
2018-08-22T07:52:14.046Z,1760
2018-08-22T07:53:14.812Z,1833
2018-08-22T07:54:15.524Z,1940
2018-08-22T07:55:16.251Z,1996
2018-08-22T07:56:17.002Z,2064
2018-08-22T07:57:17.729Z,2064
2018-08-22T07:58:18.466Z,2064
2018-08-22T07:59:19.243Z,2025
2018-08-22T08:00:19.978Z,2025
2018-08-22T08:01:20.699Z,2013
2018-08-22T08:02:21.457Z,2019
2018-08-22T08:03:22.198Z,2025
2018-08-22T08:04:22.997Z,2030
2018-08-22T08:05:23.734Z,2036
2018-08-22T08:06:24.718Z,2058
2018-08-22T08:07:25.455Z,2075
2018-08-22T08:08:27.027Z,2081
2018-08-22T08:09:27.920Z,2103
2018-08-22T08:10:28.701Z,2137
2018-08-22T08:11:29.425Z,2171
2018-08-22T08:12:30.164Z,2199
2018-08-22T08:13:31.174Z,2210
2018-08-22T08:14:31.913Z,2199
2018-08-22T08:15:32.643Z,2160
2018-08-22T08:16:33.379Z,2137
2018-08-22T08:17:34.455Z,2120
2018-08-22T08:18:35.165Z,2092
2018-08-22T08:19:36.422Z,2109
2018-08-22T08:20:37.265Z,1951
2018-08-22T08:21:38.176Z,2160
2018-08-22T08:22:38.963Z,2193
2018-08-22T08:23:39.695Z,2250
2018-08-22T08:24:40.524Z,2306
2018-08-22T08:25:41.271Z,2188
2018-08-22T08:26:42.335Z,2328
2018-08-22T08:27:43.091Z,2334
2018-08-22T08:28:43.828Z,2300
2018-08-22T08:29:44.595Z,2283
2018-08-22T08:30:45.327Z,2244
2018-08-22T08:31:46.073Z,2238
2018-08-22T08:32:46.802Z,2233
2018-08-22T08:33:47.549Z,2221
2018-08-22T08:34:48.288Z,2227
2018-08-22T08:35:49.111Z,2176
2018-08-22T08:36:49.753Z,2148
2018-08-22T08:37:50.489Z,2098
2018-08-22T08:38:51.274Z,2081
2018-08-22T08:39:52.383Z,2053
2018-08-22T08:40:53.198Z,2030
2018-08-22T08:41:53.983Z,2092
2018-08-22T08:42:55.259Z,2103
2018-08-22T08:43:56.316Z,2143
2018-08-22T08:44:57.052Z,2238
2018-08-22T08:45:57.795Z,2413
2018-08-22T08:46:58.793Z,2548
2018-08-22T08:47:59.518Z,2610
2018-08-22T08:49:00.240Z,2666
2018-08-22T08:50:00.984Z,2716
2018-08-22T08:51:01.719Z,2728
2018-08-22T08:52:02.722Z,2739
2018-08-22T08:53:03.496Z,2812
2018-08-22T08:54:04.238Z,2863
2018-08-22T08:55:05.256Z,2790
2018-08-22T08:56:05.978Z,2801
2018-08-22T08:57:06.785Z,2863
2018-08-22T08:58:07.468Z,2863
2018-08-22T08:59:08.203Z,2705
2018-08-22T09:00:08.987Z,2801
2018-08-22T09:01:09.728Z,2863
2018-08-22T09:02:10.469Z,2896
2018-08-22T09:03:11.201Z,2846
2018-08-22T09:04:11.942Z,2812
2018-08-22T09:05:12.684Z,2795
2018-08-22T09:06:13.423Z,2565
2018-08-22T09:07:14.189Z,2548
2018-08-22T09:08:14.938Z,2480
2018-08-22T09:09:15.674Z,2435
2018-08-22T09:10:16.461Z,2424
2018-08-22T09:11:17.199Z,2430
2018-08-22T09:12:18.261Z,2508
2018-08-22T09:13:18.916Z,2632
2018-08-22T09:14:19.652Z,2683
2018-08-22T09:15:20.746Z,2733
2018-08-22T09:16:21.485Z,2733
2018-08-22T09:17:22.294Z,2739
2018-08-22T09:18:22.959Z,2739
2018-08-22T09:19:23.697Z,2733
2018-08-22T09:20:24.449Z,2778
2018-08-22T09:21:25.209Z,2829
2018-08-22T09:22:25.916Z,2857
2018-08-22T09:23:26.663Z,2919
2018-08-22T09:24:27.412Z,2958
2018-08-22T09:25:28.146Z,2953
2018-08-22T09:26:29.137Z,2970
2018-08-22T09:27:29.853Z,3026
2018-08-22T09:28:30.593Z,3048
2018-08-22T09:29:31.365Z,3054
2018-08-22T09:30:32.099Z,3020
2018-08-22T09:31:32.844Z,2941
2018-08-22T09:32:33.576Z,2896
2018-08-22T09:33:34.318Z,2795
2018-08-22T09:34:35.057Z,2818
2018-08-22T09:35:35.859Z,2908
2018-08-22T09:36:36.616Z,3003
2018-08-22T09:37:37.275Z,3110
2018-08-22T09:38:38.012Z,3172
2018-08-22T09:39:38.778Z,3195
2018-08-22T09:40:39.505Z,3155
2018-08-22T09:41:40.228Z,3110
2018-08-22T09:42:40.968Z,3060
2018-08-22T09:43:41.762Z,2986
2018-08-22T09:44:42.507Z,2902
2018-08-22T09:45:43.272Z,2790
2018-08-22T09:46:44.013Z,2621
2018-08-22T09:47:44.744Z,2463
2018-08-22T09:48:45.522Z,2469
2018-08-22T09:49:46.549Z,2458
2018-08-22T09:50:47.267Z,2559
2018-08-22T09:51:48.004Z,2598
2018-08-22T09:52:48.742Z,2604
2018-08-22T09:53:49.504Z,2964
2018-08-22T09:54:50.245Z,3099
2018-08-22T09:55:51.036Z,3178
2018-08-22T09:56:51.783Z,3228
2018-08-22T09:57:52.521Z,3217
2018-08-22T09:58:53.232Z,3200
2018-08-22T09:59:54.026Z,3166
2018-08-22T10:00:54.767Z,3116
2018-08-22T10:01:55.510Z,3003
2018-08-22T10:02:56.246Z,3082
2018-08-22T10:03:57.005Z,3037
2018-08-22T10:04:57.732Z,3043
2018-08-22T10:05:58.529Z,3048
2018-08-22T10:06:59.280Z,3065
2018-08-22T10:07:59.997Z,3105
2018-08-22T10:09:00.735Z,3150
2018-08-22T10:10:01.520Z,3144
2018-08-22T10:11:02.220Z,3189
2018-08-22T10:12:02.985Z,3206
2018-08-22T10:13:03.720Z,3206
2018-08-22T10:14:04.480Z,3211
2018-08-22T10:15:05.275Z,3189
2018-08-22T10:16:05.993Z,3105
2018-08-22T10:17:06.723Z,3099
2018-08-22T10:18:07.464Z,3127
2018-08-22T10:19:08.203Z,3127
2018-08-22T10:20:08.950Z,3161
2018-08-22T10:21:09.680Z,3144
2018-08-22T10:22:10.418Z,3121
2018-08-22T10:23:11.210Z,3155
2018-08-22T10:25:27.805Z,3195
2018-08-22T10:26:28.604Z,3189
2018-08-22T10:27:29.295Z,3172
2018-08-22T10:28:30.054Z,3150
2018-08-22T10:29:30.791Z,3076
2018-08-22T10:30:31.536Z,3071
2018-08-22T10:31:32.281Z,3060
2018-08-22T10:33:48.875Z,3031
2018-08-22T10:34:49.875Z,3099
2018-08-22T10:35:50.604Z,3088
2018-08-22T10:36:51.361Z,3133
2018-08-22T10:37:52.100Z,3150
2018-08-22T10:38:52.834Z,3178
2018-08-22T10:39:53.589Z,3172
2018-08-22T10:40:54.383Z,3256
2018-08-22T10:41:55.370Z,3262
2018-08-22T10:42:56.121Z,3256
2018-08-22T10:43:56.877Z,3217
2018-08-22T10:44:57.626Z,3200
2018-08-22T10:45:58.672Z,3183
2018-08-22T10:46:59.626Z,3178
2018-08-22T10:48:00.492Z,3189
2018-08-22T10:49:01.477Z,3150
2018-08-22T10:50:02.491Z,3189
2018-08-22T10:51:03.236Z,3166
2018-08-22T10:52:03.984Z,3155
2018-08-22T10:53:04.721Z,3009
2018-08-22T10:54:05.549Z,2790
2018-08-22T10:55:06.327Z,3082
2018-08-22T10:56:07.422Z,3088
2018-08-22T10:57:08.159Z,3043
2018-08-22T10:58:08.901Z,3043
2018-08-22T10:59:09.641Z,2891
2018-08-22T11:00:10.401Z,2998
2018-08-22T11:01:11.435Z,2610
2018-08-22T11:02:12.274Z,2818
2018-08-22T11:03:13.008Z,2975
2018-08-22T11:04:13.766Z,2992
2018-08-22T11:05:14.506Z,2891
2018-08-22T11:06:15.253Z,2902
2018-08-22T11:07:16.508Z,2908
2018-08-22T11:08:17.285Z,2947
2018-08-22T11:09:18.028Z,3071
2018-08-22T11:10:18.763Z,2919
2018-08-22T11:11:19.518Z,3105
2018-08-22T11:12:20.253Z,3071
2018-08-22T11:13:21.252Z,3127
2018-08-22T11:14:22.258Z,3110
2018-08-22T11:15:22.988Z,3144
2018-08-22T11:16:23.734Z,3093
2018-08-22T11:17:24.495Z,3116
2018-08-22T11:18:25.292Z,3026
2018-08-22T11:19:26.028Z,3037
2018-08-22T11:20:26.771Z,3144
2018-08-22T11:21:27.521Z,3200
2018-08-22T11:22:28.296Z,3155
2018-08-22T11:23:29.434Z,3088
2018-08-22T11:24:30.191Z,2919
2018-08-22T11:25:31.003Z,2925
2018-08-22T11:26:31.808Z,2981
2018-08-22T11:27:32.558Z,2930
2018-08-22T11:28:33.309Z,2846
2018-08-22T11:29:34.048Z,2801
2018-08-22T11:30:34.786Z,2705
2018-08-22T11:31:35.768Z,2840
2018-08-22T11:32:36.535Z,2846
2018-08-22T11:33:37.289Z,2818
2018-08-22T11:34:38.323Z,2671
2018-08-22T11:35:39.071Z,1755
2018-08-22T11:36:39.818Z,2756
2018-08-22T11:37:40.564Z,2368
2018-08-22T11:38:41.307Z,2480
2018-08-22T11:39:42.059Z,2829
2018-08-22T11:40:42.796Z,2891
2018-08-22T11:41:43.548Z,3015
2018-08-22T11:42:44.281Z,2953
2018-08-22T11:43:45.071Z,2947
2018-08-22T11:44:45.832Z,2970
2018-08-22T11:45:46.824Z,2857
2018-08-22T11:46:47.922Z,2846
2018-08-22T11:47:48.628Z,2340
2018-08-22T11:48:49.387Z,2885
2018-08-22T11:49:50.167Z,2913
2018-08-22T11:50:50.919Z,2953
2018-08-22T11:51:51.695Z,2829
2018-08-22T11:52:52.437Z,3003
2018-08-22T11:53:53.206Z,3060
2018-08-22T11:55:37.026Z,3110
2018-08-22T11:56:37.784Z,2536
2018-08-22T11:57:38.549Z,2896
2018-08-22T11:58:39.278Z,1867
2018-08-22T11:59:40.025Z,1141
2018-08-22T12:00:40.819Z,1119
2018-08-22T12:01:41.567Z,2790
2018-08-22T12:02:42.317Z,2317
2018-08-22T12:03:43.068Z,1243
2018-08-22T12:04:43.816Z,2666
2018-08-22T12:05:44.873Z,1518
2018-08-22T12:06:45.613Z,1046
2018-08-22T12:07:46.350Z,956
2018-08-22T12:08:47.086Z,950
2018-08-22T12:09:47.835Z,1080
2018-08-22T12:10:48.636Z,2593
2018-08-22T12:11:49.376Z,2356
2018-08-22T12:12:50.114Z,3020
2018-08-22T12:13:50.863Z,3183
2018-08-22T12:14:51.602Z,3009
2018-08-22T12:15:52.394Z,3150
2018-08-22T12:16:53.142Z,3195
2018-08-22T12:17:53.883Z,3228
2018-08-22T12:18:54.631Z,3189
2018-08-22T12:19:55.365Z,3301
2018-08-22T12:20:56.121Z,1119
2018-08-22T12:21:56.854Z,922
2018-08-22T12:22:57.644Z,950
2018-08-22T12:23:58.339Z,2081
2018-08-22T12:24:59.079Z,2632
2018-08-22T12:26:00.190Z,2857
2018-08-22T12:27:00.930Z,2823
2018-08-22T12:28:02.017Z,2790
2018-08-22T12:29:02.760Z,2598
2018-08-22T12:30:03.526Z,2823
2018-08-22T12:31:04.281Z,2070
2018-08-22T12:32:05.006Z,2165
2018-08-22T12:33:05.776Z,2452
2018-08-22T12:34:06.519Z,1513
2018-08-22T12:35:07.262Z,2514
2018-08-22T12:36:08.009Z,2773
2018-08-22T12:37:08.751Z,3026
2018-08-22T12:38:09.491Z,3110
2018-08-22T12:39:10.309Z,3088
2018-08-22T12:40:11.061Z,3121
2018-08-22T12:41:11.811Z,3099
2018-08-22T12:42:12.559Z,3082
2018-08-22T12:43:13.290Z,2891
2018-08-22T12:44:14.379Z,2964
2018-08-22T12:45:15.137Z,2728
2018-08-22T12:46:15.870Z,2497
2018-08-22T12:47:16.611Z,2638
2018-08-22T12:48:17.354Z,2593
2018-08-22T12:49:18.105Z,2115
2018-08-22T12:50:19.232Z,2452
2018-08-22T12:51:19.933Z,2576
2018-08-22T12:52:20.688Z,1743
2018-08-22T12:53:21.438Z,1828
2018-08-22T12:54:22.177Z,2756
2018-08-22T12:55:22.976Z,2851
2018-08-22T12:56:23.722Z,1035
2018-08-22T12:57:24.475Z,973
2018-08-22T12:58:25.199Z,911
2018-08-22T12:59:25.950Z,832
2018-08-22T13:00:26.693Z,770
2018-08-22T13:01:27.446Z,736
2018-08-22T13:02:28.183Z,742
2018-08-22T13:03:28.925Z,770
2018-08-22T13:04:29.701Z,815
2018-08-22T13:05:30.413Z,894
2018-08-22T13:06:31.165Z,1006
2018-08-22T13:07:31.904Z,2913
2018-08-22T13:08:32.640Z,1130
2018-08-22T13:09:33.623Z,1068
2018-08-22T13:10:34.372Z,1046
2018-08-22T13:11:35.152Z,1006
2018-08-22T13:12:35.859Z,1046
2018-08-22T13:13:36.606Z,1586
2018-08-22T13:14:37.356Z,990
2018-08-22T13:15:38.102Z,1119
2018-08-22T13:16:38.847Z,1012
2018-08-22T13:17:39.581Z,984
2018-08-22T13:18:40.327Z,950
2018-08-22T13:19:41.069Z,922
2018-08-22T13:20:41.813Z,888
2018-08-22T13:21:42.553Z,871
2018-08-22T13:22:43.292Z,871
2018-08-22T13:23:44.038Z,860
2018-08-22T13:24:44.870Z,849
2018-08-22T13:25:45.526Z,832
2018-08-22T13:26:46.272Z,821
2018-08-22T13:27:47.008Z,810
2018-08-22T13:28:47.756Z,793
2018-08-22T13:29:48.495Z,798
2018-08-22T13:30:49.232Z,765
2018-08-22T13:31:49.981Z,781
2018-08-22T13:32:50.727Z,776
2018-08-22T13:33:51.712Z,759
2018-08-22T13:34:52.452Z,765
2018-08-22T13:35:53.188Z,781
2018-08-22T13:36:53.927Z,804
2018-08-22T13:37:54.664Z,849
2018-08-22T13:38:55.435Z,928
2018-08-22T13:39:56.202Z,2761
2018-08-22T13:40:56.933Z,1243
2018-08-22T13:41:57.672Z,2750
2018-08-22T13:42:58.415Z,1704
2018-08-22T13:43:59.402Z,990
2018-08-22T13:45:00.145Z,990
2018-08-22T13:46:00.893Z,967
2018-08-22T13:47:01.630Z,2441
2018-08-22T13:48:02.368Z,2632
2018-08-22T13:49:03.104Z,821
2018-08-22T13:50:03.904Z,736
2018-08-22T13:51:04.647Z,1383
2018-08-22T13:52:05.639Z,1068
2018-08-22T13:53:06.392Z,2368
2018-08-22T13:54:07.148Z,2458
2018-08-22T13:55:07.886Z,2362
2018-08-22T13:56:08.775Z,731
2018-08-22T13:57:09.415Z,663
2018-08-22T13:58:10.154Z,748
2018-08-22T13:59:10.909Z,1946
2018-08-22T14:00:11.643Z,2413
2018-08-22T14:01:12.385Z,2452
2018-08-22T14:02:13.131Z,2396
2018-08-22T14:03:13.874Z,2356
2018-08-22T14:04:14.616Z,2351
2018-08-22T14:05:15.405Z,2266
2018-08-22T14:06:16.148Z,2205
2018-08-22T14:07:16.885Z,2193
2018-08-22T14:08:17.627Z,680
2018-08-22T14:09:18.365Z,2250
2018-08-22T14:10:19.121Z,2199
2018-08-22T14:11:19.873Z,2126
2018-08-22T14:12:20.622Z,1906
2018-08-22T14:13:21.363Z,1586
2018-08-22T14:14:22.113Z,1980
2018-08-22T14:15:22.977Z,2064
2018-08-22T14:16:23.714Z,1580
2018-08-22T14:17:24.454Z,2070
2018-08-22T14:18:25.293Z,2160
2018-08-22T14:19:26.037Z,2266
2018-08-22T14:20:26.782Z,2148
2018-08-22T14:21:27.520Z,2098
2018-08-22T14:22:28.315Z,2053
2018-08-22T14:23:29.025Z,658